sensor_id;sensor_type;location;lat;lon;timestamp;pressure;altitude;pressure_sealevel;temperature;humidity
8717;BME280;4395;48.554;8.820;2023-12-20T00:02:01;95891.28;;;5.53;73.58
8717;BME280;4395;48.554;8.820;2023-12-20T00:04:05;95887.94;;;5.53;73.50
8717;BME280;4395;48.554;8.820;2023-12-20T00:06:08;95889.72;;;5.52;73.38
8717;BME280;4395;48.554;8.820;2023-12-20T00:08:10;95891.28;;;5.53;73.48
8717;BME280;4395;48.554;8.820;2023-12-20T00:10:13;95883.97;;;5.50;73.56
8717;BME280;4395;48.554;8.820;2023-12-20T00:12:16;95875.44;;;5.50;73.67
8717;BME280;4395;48.554;8.820;2023-12-20T00:14:19;95872.66;;;5.51;73.94
8717;BME280;4395;48.554;8.820;2023-12-20T00:16:21;95861.88;;;5.54;73.94
8717;BME280;4395;48.554;8.820;2023-12-20T00:18:26;95873.22;;;5.53;73.97
8717;BME280;4395;48.554;8.820;2023-12-20T00:20:28;95871.63;;;5.52;74.25
8717;BME280;4395;48.554;8.820;2023-12-20T00:22:31;95876.81;;;5.52;74.17
8717;BME280;4395;48.554;8.820;2023-12-20T00:24:34;95881.53;;;5.55;74.14
8717;BME280;4395;48.554;8.820;2023-12-20T00:26:37;95875.34;;;5.56;73.96
8717;BME280;4395;48.554;8.820;2023-12-20T00:28:39;95885.66;;;5.56;74.12
8717;BME280;4395;48.554;8.820;2023-12-20T00:30:42;95873.31;;;5.58;74.16
8717;BME280;4395;48.554;8.820;2023-12-20T00:32:45;95872.22;;;5.54;74.21
8717;BME280;4395;48.554;8.820;2023-12-20T00:34:49;95868.38;;;5.57;74.29
8717;BME280;4395;48.554;8.820;2023-12-20T00:36:52;95861.31;;;5.52;74.59
8717;BME280;4395;48.554;8.820;2023-12-20T00:38:56;95860.75;;;5.50;74.81
8717;BME280;4395;48.554;8.820;2023-12-20T00:40:59;95850.50;;;5.43;75.31
8717;BME280;4395;48.554;8.820;2023-12-20T00:43:01;95851.75;;;5.41;75.68
8717;BME280;4395;48.554;8.820;2023-12-20T00:45:05;95857.47;;;5.43;76.17
8717;BME280;4395;48.554;8.820;2023-12-20T00:47:08;95843.78;;;5.42;76.98
8717;BME280;4395;48.554;8.820;2023-12-20T00:49:10;95850.16;;;5.40;77.29
8717;BME280;4395;48.554;8.820;2023-12-20T00:51:14;95853.84;;;5.32;78.11
8717;BME280;4395;48.554;8.820;2023-12-20T00:53:17;95855.53;;;5.27;78.38
8717;BME280;4395;48.554;8.820;2023-12-20T00:55:20;95855.06;;;5.18;78.85
8717;BME280;4395;48.554;8.820;2023-12-20T00:57:23;95851.13;;;5.16;79.34
8717;BME280;4395;48.554;8.820;2023-12-20T00:59:26;95850.53;;;5.14;79.43
8717;BME280;4395;48.554;8.820;2023-12-20T01:01:29;95843.22;;;5.11;79.79
8717;BME280;4395;48.554;8.820;2023-12-20T01:03:34;95846.03;;;5.09;79.89
8717;BME280;4395;48.554;8.820;2023-12-20T01:05:37;95865.34;;;5.06;80.08
8717;BME280;4395;48.554;8.820;2023-12-20T01:07:41;95865.19;;;5.01;80.35
8717;BME280;4395;48.554;8.820;2023-12-20T01:09:44;95871.38;;;5.00;80.58
8717;BME280;4395;48.554;8.820;2023-12-20T01:11:46;95878.53;;;4.98;80.83
8717;BME280;4395;48.554;8.820;2023-12-20T01:13:48;95879.31;;;4.99;81.12
8717;BME280;4395;48.554;8.820;2023-12-20T01:15:51;95870.94;;;5.03;81.23
8717;BME280;4395;48.554;8.820;2023-12-20T01:17:54;95875.09;;;5.04;80.95
8717;BME280;4395;48.554;8.820;2023-12-20T01:19:58;95874.09;;;5.05;81.25
8717;BME280;4395;48.554;8.820;2023-12-20T01:22:01;95870.03;;;5.10;81.18
8717;BME280;4395;48.554;8.820;2023-12-20T01:24:04;95860.88;;;5.14;81.10
8717;BME280;4395;48.554;8.820;2023-12-20T01:26:07;95861.31;;;5.11;80.82
8717;BME280;4395;48.554;8.820;2023-12-20T01:28:10;95865.34;;;5.06;80.83
8717;BME280;4395;48.554;8.820;2023-12-20T01:30:14;95863.19;;;5.03;80.96
8717;BME280;4395;48.554;8.820;2023-12-20T01:32:18;95869.25;;;5.09;80.88
8717;BME280;4395;48.554;8.820;2023-12-20T01:34:21;95869.78;;;4.99;81.27
8717;BME280;4395;48.554;8.820;2023-12-20T01:36:24;95878.97;;;4.95;81.39
8717;BME280;4395;48.554;8.820;2023-12-20T01:38:26;95877.41;;;4.94;81.81
8717;BME280;4395;48.554;8.820;2023-12-20T01:40:31;95877.06;;;4.91;81.89
8717;BME280;4395;48.554;8.820;2023-12-20T01:42:32;95872.91;;;4.90;82.05
8717;BME280;4395;48.554;8.820;2023-12-20T01:44:35;95871.09;;;4.90;81.95
8717;BME280;4395;48.554;8.820;2023-12-20T01:46:38;95869.88;;;4.93;82.08
8717;BME280;4395;48.554;8.820;2023-12-20T01:48:41;95883.13;;;4.96;81.71
8717;BME280;4395;48.554;8.820;2023-12-20T01:50:45;95878.19;;;4.95;81.85
8717;BME280;4395;48.554;8.820;2023-12-20T01:52:48;95882.56;;;4.94;81.69
8717;BME280;4395;48.554;8.820;2023-12-20T01:54:53;95876.16;;;4.97;81.63
8717;BME280;4395;48.554;8.820;2023-12-20T01:56:59;95870.69;;;4.93;81.62
8717;BME280;4395;48.554;8.820;2023-12-20T01:59:04;95863.16;;;4.92;81.74
8717;BME280;4395;48.554;8.820;2023-12-20T02:01:07;95856.88;;;4.99;81.42
8717;BME280;4395;48.554;8.820;2023-12-20T02:03:11;95863.19;;;5.03;81.52
8717;BME280;4395;48.554;8.820;2023-12-20T02:05:14;95861.84;;;5.01;81.46
8717;BME280;4395;48.554;8.820;2023-12-20T02:07:17;95857.47;;;5.01;81.55
8717;BME280;4395;48.554;8.820;2023-12-20T02:09:22;95855.03;;;5.06;81.51
8717;BME280;4395;48.554;8.820;2023-12-20T02:11:25;95857.59;;;5.06;81.50
8717;BME280;4395;48.554;8.820;2023-12-20T02:13:30;95856.13;;;5.11;81.04
8717;BME280;4395;48.554;8.820;2023-12-20T02:15:33;95858.03;;;5.03;81.05
8717;BME280;4395;48.554;8.820;2023-12-20T02:17:39;95859.47;;;4.99;81.10
8717;BME280;4395;48.554;8.820;2023-12-20T02:19:43;95854.63;;;4.91;81.47
8717;BME280;4395;48.554;8.820;2023-12-20T02:21:47;95848.47;;;4.92;81.55
8717;BME280;4395;48.554;8.820;2023-12-20T02:23:50;95852.91;;;4.85;81.55
8717;BME280;4395;48.554;8.820;2023-12-20T02:25:53;95857.63;;;4.88;81.82
8717;BME280;4395;48.554;8.820;2023-12-20T02:27:55;95860.34;;;4.93;81.74
8717;BME280;4395;48.554;8.820;2023-12-20T02:29:58;95855.97;;;4.94;81.59
8717;BME280;4395;48.554;8.820;2023-12-20T02:32:00;95860.78;;;4.90;81.42
8717;BME280;4395;48.554;8.820;2023-12-20T02:34:03;95850.31;;;4.85;81.15
8717;BME280;4395;48.554;8.820;2023-12-20T02:36:06;95850.78;;;4.82;81.27
8717;BME280;4395;48.554;8.820;2023-12-20T02:38:10;95852.56;;;4.82;81.20
8717;BME280;4395;48.554;8.820;2023-12-20T02:40:13;95856.38;;;4.79;81.07
8717;BME280;4395;48.554;8.820;2023-12-20T02:42:16;95851.00;;;4.81;81.15
8717;BME280;4395;48.554;8.820;2023-12-20T02:44:19;95845.16;;;4.85;81.57
8717;BME280;4395;48.554;8.820;2023-12-20T02:46:23;95859.63;;;4.86;81.57
8717;BME280;4395;48.554;8.820;2023-12-20T02:48:26;95860.06;;;4.83;81.12
8717;BME280;4395;48.554;8.820;2023-12-20T02:50:28;95856.06;;;4.87;81.14
8717;BME280;4395;48.554;8.820;2023-12-20T02:52:31;95857.63;;;4.88;81.18
8717;BME280;4395;48.554;8.820;2023-12-20T02:54:36;95853.91;;;4.84;80.68
8717;BME280;4395;48.554;8.820;2023-12-20T02:56:39;95858.94;;;4.79;81.18
8717;BME280;4395;48.554;8.820;2023-12-20T02:58:41;95860.94;;;4.77;81.10
8717;BME280;4395;48.554;8.820;2023-12-20T03:00:44;95857.78;;;4.75;81.37
8717;BME280;4395;48.554;8.820;2023-12-20T03:02:47;95856.00;;;4.76;81.15
8717;BME280;4395;48.554;8.820;2023-12-20T03:04:50;95854.63;;;4.73;81.31
8717;BME280;4395;48.554;8.820;2023-12-20T03:06:52;95857.00;;;4.75;81.39
8717;BME280;4395;48.554;8.820;2023-12-20T03:08:54;95852.22;;;4.78;81.61
8717;BME280;4395;48.554;8.820;2023-12-20T03:10:59;95849.94;;;4.70;81.30
8717;BME280;4395;48.554;8.820;2023-12-20T03:13:02;95856.09;;;4.69;81.84
8717;BME280;4395;48.554;8.820;2023-12-20T03:15:06;95856.63;;;4.71;81.57
8717;BME280;4395;48.554;8.820;2023-12-20T03:17:09;95861.25;;;4.69;81.56
8717;BME280;4395;48.554;8.820;2023-12-20T03:19:12;95871.34;;;4.70;81.69
8717;BME280;4395;48.554;8.820;2023-12-20T03:21:14;95867.84;;;4.65;81.28
8717;BME280;4395;48.554;8.820;2023-12-20T03:23:16;95863.09;;;4.62;81.40
8717;BME280;4395;48.554;8.820;2023-12-20T03:25:19;95870.25;;;4.60;81.50
8717;BME280;4395;48.554;8.820;2023-12-20T03:27:24;95874.41;;;4.61;81.80
8717;BME280;4395;48.554;8.820;2023-12-20T03:29:26;95876.41;;;4.59;81.54
8717;BME280;4395;48.554;8.820;2023-12-20T03:31:28;95881.03;;;4.57;81.72
8717;BME280;4395;48.554;8.820;2023-12-20T03:33:31;95885.31;;;4.63;81.95
8717;BME280;4395;48.554;8.820;2023-12-20T03:35:34;95896.00;;;4.66;81.39
8717;BME280;4395;48.554;8.820;2023-12-20T03:37:37;95894.63;;;4.64;81.53
8717;BME280;4395;48.554;8.820;2023-12-20T03:39:40;95894.84;;;4.62;81.27
8717;BME280;4395;48.554;8.820;2023-12-20T03:41:43;95896.50;;;4.57;81.19
8717;BME280;4395;48.554;8.820;2023-12-20T03:43:47;95898.50;;;4.55;81.49
8717;BME280;4395;48.554;8.820;2023-12-20T03:45:50;95898.50;;;4.55;81.35
8717;BME280;4395;48.554;8.820;2023-12-20T03:47:53;95890.97;;;4.53;81.51
8717;BME280;4395;48.554;8.820;2023-12-20T03:49:58;95901.09;;;4.55;81.38
8717;BME280;4395;48.554;8.820;2023-12-20T03:52:03;95902.22;;;4.59;81.75
8717;BME280;4395;48.554;8.820;2023-12-20T03:54:06;95900.78;;;4.63;81.65
8717;BME280;4395;48.554;8.820;2023-12-20T03:56:09;95895.63;;;4.63;81.28
8717;BME280;4395;48.554;8.820;2023-12-20T03:58:12;95896.78;;;4.67;81.33
8717;BME280;4395;48.554;8.820;2023-12-20T04:00:16;95895.78;;;4.68;81.12
8717;BME280;4395;48.554;8.820;2023-12-20T04:02:19;95893.84;;;4.63;80.94
8717;BME280;4395;48.554;8.820;2023-12-20T04:04:22;95899.56;;;4.65;80.76
8717;BME280;4395;48.554;8.820;2023-12-20T04:06:25;95901.44;;;4.58;80.62
8717;BME280;4395;48.554;8.820;2023-12-20T04:08:28;95907.16;;;4.60;80.87
8717;BME280;4395;48.554;8.820;2023-12-20T04:10:31;95915.25;;;4.64;80.80
8717;BME280;4395;48.554;8.820;2023-12-20T04:12:33;95913.88;;;4.61;80.88
8717;BME280;4395;48.554;8.820;2023-12-20T04:14:36;95917.91;;;4.57;80.57
8717;BME280;4395;48.554;8.820;2023-12-20T04:16:40;95911.53;;;4.60;80.66
8717;BME280;4395;48.554;8.820;2023-12-20T04:18:48;95910.72;;;4.59;80.59
8717;BME280;4395;48.554;8.820;2023-12-20T04:20:51;95915.88;;;4.59;80.88
8717;BME280;4395;48.554;8.820;2023-12-20T04:22:54;95911.88;;;4.63;80.86
8717;BME280;4395;48.554;8.820;2023-12-20T04:24:56;95915.47;;;4.62;80.61
8717;BME280;4395;48.554;8.820;2023-12-20T04:26:58;95910.97;;;4.58;80.76
8717;BME280;4395;48.554;8.820;2023-12-20T04:29:01;95913.09;;;4.61;81.08
8717;BME280;4395;48.554;8.820;2023-12-20T04:31:04;95915.03;;;4.47;80.65
8717;BME280;4395;48.554;8.820;2023-12-20T04:33:08;95912.81;;;4.51;81.05
8717;BME280;4395;48.554;8.820;2023-12-20T04:35:11;95908.81;;;4.55;80.88
8717;BME280;4395;48.554;8.820;2023-12-20T04:37:14;95920.72;;;4.56;80.87
8717;BME280;4395;48.554;8.820;2023-12-20T04:39:17;95916.97;;;4.52;80.74
8717;BME280;4395;48.554;8.820;2023-12-20T04:41:20;95924.13;;;4.50;80.44
8717;BME280;4395;48.554;8.820;2023-12-20T04:43:22;95918.19;;;4.49;80.78
8717;BME280;4395;48.554;8.820;2023-12-20T04:45:24;95929.88;;;4.52;81.02
8717;BME280;4395;48.554;8.820;2023-12-20T04:47:27;95925.50;;;4.52;80.87
8717;BME280;4395;48.554;8.820;2023-12-20T04:49:30;95921.91;;;4.53;80.88
8717;BME280;4395;48.554;8.820;2023-12-20T04:51:34;95930.22;;;4.55;80.59
8717;BME280;4395;48.554;8.820;2023-12-20T04:53:37;95936.59;;;4.53;80.63
8717;BME280;4395;48.554;8.820;2023-12-20T04:55:39;95928.28;;;4.51;80.76
8717;BME280;4395;48.554;8.820;2023-12-20T04:57:41;95932.22;;;4.53;80.72
8717;BME280;4395;48.554;8.820;2023-12-20T04:59:44;95933.03;;;4.54;80.65
8717;BME280;4395;48.554;8.820;2023-12-20T05:01:47;95939.03;;;4.48;80.70
8717;BME280;4395;48.554;8.820;2023-12-20T05:03:50;95937.38;;;4.53;80.54
8717;BME280;4395;48.554;8.820;2023-12-20T05:05:55;95942.53;;;4.53;80.39
8717;BME280;4395;48.554;8.820;2023-12-20T05:07:57;95942.91;;;4.57;80.39
8717;BME280;4395;48.554;8.820;2023-12-20T05:10:01;95946.03;;;4.59;80.53
8717;BME280;4395;48.554;8.820;2023-12-20T05:12:06;95952.34;;;4.63;80.41
8717;BME280;4395;48.554;8.820;2023-12-20T05:14:09;95959.88;;;4.64;80.25
8717;BME280;4395;48.554;8.820;2023-12-20T05:16:12;95965.84;;;4.65;80.25
8717;BME280;4395;48.554;8.820;2023-12-20T05:18:15;95962.25;;;4.66;80.17
8717;BME280;4395;48.554;8.820;2023-12-20T05:20:18;95966.19;;;4.68;80.17
8717;BME280;4395;48.554;8.820;2023-12-20T05:22:23;95965.25;;;4.63;80.45
8717;BME280;4395;48.554;8.820;2023-12-20T05:24:26;95971.41;;;4.62;80.39
8717;BME280;4395;48.554;8.820;2023-12-20T05:26:28;95977.22;;;4.57;80.33
8717;BME280;4395;48.554;8.820;2023-12-20T05:28:32;95976.66;;;4.55;80.29
8717;BME280;4395;48.554;8.820;2023-12-20T05:30:34;95978.28;;;4.50;80.64
8717;BME280;4395;48.554;8.820;2023-12-20T05:32:37;95971.00;;;4.47;80.70
8717;BME280;4395;48.554;8.820;2023-12-20T05:34:39;95975.56;;;4.45;81.08
8717;BME280;4395;48.554;8.820;2023-12-20T05:36:42;95977.78;;;4.41;81.25
8717;BME280;4395;48.554;8.820;2023-12-20T05:38:46;95985.72;;;4.40;81.08
8717;BME280;4395;48.554;8.820;2023-12-20T05:40:49;95992.28;;;4.35;81.42
8717;BME280;4395;48.554;8.820;2023-12-20T05:42:52;95988.56;;;4.31;81.59
8717;BME280;4395;48.554;8.820;2023-12-20T05:44:54;95992.56;;;4.27;81.84
8717;BME280;4395;48.554;8.820;2023-12-20T05:46:59;95993.97;;;4.23;82.03
8717;BME280;4395;48.554;8.820;2023-12-20T05:49:02;95999.56;;;4.20;82.42
8717;BME280;4395;48.554;8.820;2023-12-20T05:51:04;96001.16;;;4.21;82.21
8717;BME280;4395;48.554;8.820;2023-12-20T05:53:07;95990.25;;;4.19;82.43
8717;BME280;4395;48.554;8.820;2023-12-20T05:55:11;95987.19;;;4.72;82.48
8717;BME280;4395;48.554;8.820;2023-12-20T05:57:14;95989.84;;;4.65;81.23
8717;BME280;4395;48.554;8.820;2023-12-20T05:59:17;95989.03;;;4.47;81.02
8717;BME280;4395;48.554;8.820;2023-12-20T06:01:19;95997.97;;;4.44;81.27
8717;BME280;4395;48.554;8.820;2023-12-20T06:03:22;95989.88;;;4.41;81.62
8717;BME280;4395;48.554;8.820;2023-12-20T06:05:25;95997.59;;;4.41;81.60
8717;BME280;4395;48.554;8.820;2023-12-20T06:07:28;95997.03;;;4.39;81.73
8717;BME280;4395;48.554;8.820;2023-12-20T06:09:31;96001.03;;;4.34;81.74
8717;BME280;4395;48.554;8.820;2023-12-20T06:11:35;96008.78;;;4.34;82.08
8717;BME280;4395;48.554;8.820;2023-12-20T06:13:38;96012.91;;;4.35;81.99
8717;BME280;4395;48.554;8.820;2023-12-20T06:15:41;96012.56;;;4.32;81.95
8717;BME280;4395;48.554;8.820;2023-12-20T06:17:43;96017.25;;;4.35;82.17
8717;BME280;4395;48.554;8.820;2023-12-20T06:19:49;96012.91;;;4.35;82.04
8717;BME280;4395;48.554;8.820;2023-12-20T06:21:51;96020.50;;;4.30;82.09
8717;BME280;4395;48.554;8.820;2023-12-20T06:23:54;96013.97;;;4.28;81.99
8717;BME280;4395;48.554;8.820;2023-12-20T06:25:57;96009.00;;;4.26;82.11
8717;BME280;4395;48.554;8.820;2023-12-20T06:28:00;96010.22;;;4.24;82.26
8717;BME280;4395;48.554;8.820;2023-12-20T06:30:04;96014.59;;;4.23;82.05
8717;BME280;4395;48.554;8.820;2023-12-20T06:32:07;96009.44;;;4.23;82.21
8717;BME280;4395;48.554;8.820;2023-12-20T06:34:11;96005.84;;;4.24;82.16
8717;BME280;4395;48.554;8.820;2023-12-20T06:36:13;96013.38;;;4.26;82.26
8717;BME280;4395;48.554;8.820;2023-12-20T06:38:18;96016.16;;;4.24;81.89
8717;BME280;4395;48.554;8.820;2023-12-20T06:40:21;96016.94;;;4.25;81.89
8717;BME280;4395;48.554;8.820;2023-12-20T06:42:24;96024.34;;;4.21;81.93
8717;BME280;4395;48.554;8.820;2023-12-20T06:44:28;96021.31;;;4.24;82.19
8717;BME280;4395;48.554;8.820;2023-12-20T06:46:31;96025.28;;;4.27;82.00
8717;BME280;4395;48.554;8.820;2023-12-20T06:48:33;96027.84;;;4.27;81.67
8717;BME280;4395;48.554;8.820;2023-12-20T06:50:36;96025.47;;;4.25;82.01
8717;BME280;4395;48.554;8.820;2023-12-20T06:52:41;96019.75;;;4.23;81.92
8717;BME280;4395;48.554;8.820;2023-12-20T06:54:44;96030.03;;;4.23;81.89
8717;BME280;4395;48.554;8.820;2023-12-20T06:56:47;96029.25;;;4.23;81.87
8717;BME280;4395;48.554;8.820;2023-12-20T06:58:49;96036.78;;;4.24;81.94
8717;BME280;4395;48.554;8.820;2023-12-20T07:00:53;96044.31;;;4.26;81.85
8717;BME280;4395;48.554;8.820;2023-12-20T07:02:56;96046.88;;;4.26;82.03
8717;BME280;4395;48.554;8.820;2023-12-20T07:04:59;96045.88;;;4.27;81.91
8717;BME280;4395;48.554;8.820;2023-12-20T07:07:02;96049.44;;;4.32;81.98
8717;BME280;4395;48.554;8.820;2023-12-20T07:09:05;96057.75;;;4.34;81.90
8717;BME280;4395;48.554;8.820;2023-12-20T07:11:08;96049.00;;;4.35;81.79
8717;BME280;4395;48.554;8.820;2023-12-20T07:13:11;96060.31;;;4.34;81.91
8717;BME280;4395;48.554;8.820;2023-12-20T07:15:15;96059.28;;;4.35;81.89
8717;BME280;4395;48.554;8.820;2023-12-20T07:17:19;96060.09;;;4.36;81.75
8717;BME280;4395;48.554;8.820;2023-12-20T07:19:22;96057.31;;;4.38;81.61
8717;BME280;4395;48.554;8.820;2023-12-20T07:21:24;96052.16;;;4.38;81.73
8717;BME280;4395;48.554;8.820;2023-12-20T07:23:27;96052.16;;;4.38;81.66
8717;BME280;4395;48.554;8.820;2023-12-20T07:25:30;96060.47;;;4.40;81.80
8717;BME280;4395;48.554;8.820;2023-12-20T07:27:34;96059.47;;;4.41;81.50
8717;BME280;4395;48.554;8.820;2023-12-20T07:29:37;96070.94;;;4.45;81.63
8717;BME280;4395;48.554;8.820;2023-12-20T07:31:40;96075.09;;;4.46;81.00
8717;BME280;4395;48.554;8.820;2023-12-20T07:33:43;96085.84;;;4.43;81.22
8717;BME280;4395;48.554;8.820;2023-12-20T07:35:46;96091.56;;;4.45;81.06
8717;BME280;4395;48.554;8.820;2023-12-20T07:37:49;96099.09;;;4.46;81.25
8717;BME280;4395;48.554;8.820;2023-12-20T07:39:52;96095.50;;;4.47;81.06
8717;BME280;4395;48.554;8.820;2023-12-20T07:41:54;96096.88;;;4.50;81.17
8717;BME280;4395;48.554;8.820;2023-12-20T07:43:57;96102.22;;;4.55;80.99
8717;BME280;4395;48.554;8.820;2023-12-20T07:46:04;96098.63;;;4.56;81.12
8717;BME280;4395;48.554;8.820;2023-12-20T07:48:07;96097.19;;;4.60;81.14
8717;BME280;4395;48.554;8.820;2023-12-20T07:50:11;96097.78;;;4.62;81.11
8717;BME280;4395;48.554;8.820;2023-12-20T07:52:14;96099.34;;;4.63;81.18
8717;BME280;4395;48.554;8.820;2023-12-20T07:54:17;96098.34;;;4.64;81.07
8717;BME280;4395;48.554;8.820;2023-12-20T07:56:20;96102.31;;;4.66;81.11
8717;BME280;4395;48.554;8.820;2023-12-20T07:58:23;96113.41;;;4.67;80.88
8717;BME280;4395;48.554;8.820;2023-12-20T08:00:41;96110.66;;;4.62;80.97
8717;BME280;4395;48.554;8.820;2023-12-20T08:02:44;96111.06;;;4.59;81.06
8717;BME280;4395;48.554;8.820;2023-12-20T08:04:45;96119.84;;;4.58;81.13
8717;BME280;4395;48.554;8.820;2023-12-20T08:06:50;96111.53;;;4.56;81.09
8717;BME280;4395;48.554;8.820;2023-12-20T08:08:53;96124.81;;;4.53;81.11
8717;BME280;4395;48.554;8.820;2023-12-20T08:11:05;96121.84;;;4.56;81.36
8717;BME280;4395;48.554;8.820;2023-12-20T08:13:07;96121.84;;;4.56;81.53
8717;BME280;4395;48.554;8.820;2023-12-20T08:15:10;96118.25;;;4.57;81.31
8717;BME280;4395;48.554;8.820;2023-12-20T08:17:13;96118.81;;;4.59;81.46
8717;BME280;4395;48.554;8.820;2023-12-20T08:19:17;96116.69;;;4.56;81.35
8717;BME280;4395;48.554;8.820;2023-12-20T08:21:20;96121.84;;;4.56;81.68
8717;BME280;4395;48.554;8.820;2023-12-20T08:23:25;96136.88;;;4.59;81.62
8717;BME280;4395;48.554;8.820;2023-12-20T08:25:29;96126.13;;;4.62;81.72
8717;BME280;4395;48.554;8.820;2023-12-20T08:27:32;96122.94;;;4.66;81.70
8717;BME280;4395;48.554;8.820;2023-12-20T08:29:35;96116.78;;;4.67;81.77
8717;BME280;4395;48.554;8.820;2023-12-20T08:31:38;96123.53;;;4.68;81.73
8717;BME280;4395;48.554;8.820;2023-12-20T08:33:41;96121.94;;;4.67;82.05
8717;BME280;4395;48.554;8.820;2023-12-20T08:35:44;96122.88;;;4.73;81.84
8717;BME280;4395;48.554;8.820;2023-12-20T08:37:46;96125.03;;;4.76;81.75
8717;BME280;4395;48.554;8.820;2023-12-20T08:39:50;96132.00;;;4.76;81.26
8717;BME280;4395;48.554;8.820;2023-12-20T08:41:53;96127.25;;;4.72;81.55
8717;BME280;4395;48.554;8.820;2023-12-20T08:43:56;96144.31;;;4.74;81.17
8717;BME280;4395;48.554;8.820;2023-12-20T08:45:58;96149.91;;;4.70;81.14
8717;BME280;4395;48.554;8.820;2023-12-20T08:48:00;96156.25;;;4.68;81.00
8717;BME280;4395;48.554;8.820;2023-12-20T08:50:08;96144.78;;;4.64;80.85
8717;BME280;4395;48.554;8.820;2023-12-20T08:52:11;96153.50;;;4.63;80.36
8717;BME280;4395;48.554;8.820;2023-12-20T08:54:14;96156.75;;;4.52;79.65
8717;BME280;4395;48.554;8.820;2023-12-20T08:56:19;96163.19;;;4.43;78.34
8717;BME280;4395;48.554;8.820;2023-12-20T08:58:22;96156.84;;;4.39;77.80
8717;BME280;4395;48.554;8.820;2023-12-20T09:00:25;96166.00;;;4.34;77.17
8717;BME280;4395;48.554;8.820;2023-12-20T09:02:29;96164.84;;;4.24;76.62
8717;BME280;4395;48.554;8.820;2023-12-20T09:04:32;96164.06;;;4.23;76.75
8717;BME280;4395;48.554;8.820;2023-12-20T09:06:35;96162.28;;;4.24;76.74
8717;BME280;4395;48.554;8.820;2023-12-20T09:08:37;96164.84;;;4.24;76.27
8717;BME280;4395;48.554;8.820;2023-12-20T09:10:40;96170.41;;;4.27;76.27
8717;BME280;4395;48.554;8.820;2023-12-20T09:12:44;96166.41;;;4.31;76.56
8717;BME280;4395;48.554;8.820;2023-12-20T09:14:51;96165.22;;;4.34;76.63
8717;BME280;4395;48.554;8.820;2023-12-20T09:16:54;96164.03;;;4.30;75.84
8717;BME280;4395;48.554;8.820;2023-12-20T09:18:57;96170.56;;;4.32;76.10
8717;BME280;4395;48.554;8.820;2023-12-20T09:21:00;96161.25;;;4.31;75.89
8717;BME280;4395;48.554;8.820;2023-12-20T09:23:03;96160.22;;;4.39;76.28
8717;BME280;4395;48.554;8.820;2023-12-20T09:25:06;96159.59;;;4.44;75.93
8717;BME280;4395;48.554;8.820;2023-12-20T09:27:09;96160.34;;;4.51;75.28
8717;BME280;4395;48.554;8.820;2023-12-20T09:29:13;96152.41;;;4.52;75.37
8717;BME280;4395;48.554;8.820;2023-12-20T09:31:17;96152.91;;;4.67;75.64
8717;BME280;4395;48.554;8.820;2023-12-20T09:33:19;96157.84;;;4.69;74.06
8717;BME280;4395;48.554;8.820;2023-12-20T09:35:22;96163.75;;;4.76;74.40
8717;BME280;4395;48.554;8.820;2023-12-20T09:37:26;96159.06;;;4.91;73.62
8717;BME280;4395;48.554;8.820;2023-12-20T09:39:29;96163.22;;;4.92;74.63
8717;BME280;4395;48.554;8.820;2023-12-20T09:41:37;96164.38;;;4.96;73.89
8717;BME280;4395;48.554;8.820;2023-12-20T09:43:44;96166.41;;;5.13;74.78
8717;BME280;4395;48.554;8.820;2023-12-20T09:45:48;96166.59;;;5.18;72.65
8717;BME280;4395;48.554;8.820;2023-12-20T09:47:52;96167.84;;;5.08;72.86
8717;BME280;4395;48.554;8.820;2023-12-20T09:49:56;96174.88;;;5.20;73.69
8717;BME280;4395;48.554;8.820;2023-12-20T09:52:00;96182.22;;;5.23;71.62
8717;BME280;4395;48.554;8.820;2023-12-20T09:54:03;96174.44;;;5.04;70.85
8717;BME280;4395;48.554;8.820;2023-12-20T09:56:05;96179.59;;;5.04;71.60
8717;BME280;4395;48.554;8.820;2023-12-20T09:58:08;96184.91;;;5.10;71.31
8717;BME280;4395;48.554;8.820;2023-12-20T10:00:13;96198.47;;;5.05;69.81
8717;BME280;4395;48.554;8.820;2023-12-20T10:02:19;96169.88;;;5.06;70.27
8717;BME280;4395;48.554;8.820;2023-12-20T10:04:24;96183.88;;;5.17;70.50
8717;BME280;4395;48.554;8.820;2023-12-20T10:06:31;96196.59;;;5.12;69.49
8717;BME280;4395;48.554;8.820;2023-12-20T10:08:34;96184.06;;;5.16;69.47
8717;BME280;4395;48.554;8.820;2023-12-20T10:10:37;96183.66;;;5.19;69.35
8717;BME280;4395;48.554;8.820;2023-12-20T10:13:01;96180.41;;;5.23;69.57
8717;BME280;4395;48.554;8.820;2023-12-20T10:15:04;96176.06;;;5.24;67.54
8717;BME280;4395;48.554;8.820;2023-12-20T10:17:07;96174.78;;;5.33;67.97
8717;BME280;4395;48.554;8.820;2023-12-20T10:19:11;96172.81;;;5.53;68.66
8717;BME280;4395;48.554;8.820;2023-12-20T10:21:14;96181.13;;;5.73;67.73
8717;BME280;4395;48.554;8.820;2023-12-20T10:23:17;96173.53;;;5.78;67.13
8717;BME280;4395;48.554;8.820;2023-12-20T10:25:20;96157.31;;;5.90;66.97
8717;BME280;4395;48.554;8.820;2023-12-20T10:27:23;96167.22;;;5.93;67.15
8717;BME280;4395;48.554;8.820;2023-12-20T10:29:26;96150.41;;;5.84;66.74
8717;BME280;4395;48.554;8.820;2023-12-20T10:31:30;96146.69;;;5.79;66.57
8717;BME280;4395;48.554;8.820;2023-12-20T10:33:33;96150.56;;;5.89;65.18
8717;BME280;4395;48.554;8.820;2023-12-20T10:35:39;96141.66;;;6.03;66.28
8717;BME280;4395;48.554;8.820;2023-12-20T10:37:47;96144.94;;;6.10;64.25
8717;BME280;4395;48.554;8.820;2023-12-20T10:39:51;96154.75;;;6.20;65.60
8717;BME280;4395;48.554;8.820;2023-12-20T10:41:54;96150.09;;;6.10;64.04
8717;BME280;4395;48.554;8.820;2023-12-20T10:43:59;96146.00;;;6.21;65.67
8717;BME280;4395;48.554;8.820;2023-12-20T10:46:03;96142.28;;;6.28;64.18
8717;BME280;4395;48.554;8.820;2023-12-20T10:48:07;96146.34;;;6.24;63.33
8717;BME280;4395;48.554;8.820;2023-12-20T10:50:10;96141.66;;;6.03;63.47
8717;BME280;4395;48.554;8.820;2023-12-20T10:52:14;96143.06;;;5.80;63.84
8717;BME280;4395;48.554;8.820;2023-12-20T10:54:19;96151.59;;;5.81;64.10
8717;BME280;4395;48.554;8.820;2023-12-20T10:56:21;96159.16;;;5.46;63.92
8717;BME280;4395;48.554;8.820;2023-12-20T10:58:26;96152.53;;;5.32;63.46
8717;BME280;4395;48.554;8.820;2023-12-20T11:00:31;96149.03;;;5.26;65.40
8717;BME280;4395;48.554;8.820;2023-12-20T11:02:38;96147.94;;;5.34;65.73
8717;BME280;4395;48.554;8.820;2023-12-20T11:04:47;96144.94;;;5.37;65.98
8717;BME280;4395;48.554;8.820;2023-12-20T11:06:58;96147.81;;;5.29;65.08
8717;BME280;4395;48.554;8.820;2023-12-20T11:09:12;96140.44;;;5.07;64.22
8717;BME280;4395;48.554;8.820;2023-12-20T11:11:23;96161.84;;;5.15;65.97
8717;BME280;4395;48.554;8.820;2023-12-20T11:13:32;96154.47;;;5.18;64.43
8717;BME280;4395;48.554;8.820;2023-12-20T11:15:37;96155.16;;;5.07;64.28
8717;BME280;4395;48.554;8.820;2023-12-20T11:17:39;96145.19;;;5.11;64.30
8717;BME280;4395;48.554;8.820;2023-12-20T11:20:06;96140.31;;;5.21;64.87
8717;BME280;4395;48.554;8.820;2023-12-20T11:22:10;96140.63;;;5.13;63.15